Chris — V7XF8 — position and weather

sailwx.info

Track history (hours):
 
Tides and Currents Weather Stations Pressure Air Temp Water Temp Dewpoint Dewpoint Depression Visibility Wind Speed Wind Dir Waves Ship Positions

Chris

Last reported at 2017-Jan-01 06:30 UTC. Time now 2017-Jan-17 10:58 UTC.
Position N 35°38' E 014°41'.
Warning: this ship's position is 16 days out of date.

Length 225 m; draft 12.6 m.

Type: Cargo ship. MMSI: 538004472.

Date/timePositionNaut miles runAvg speedWind from/ knotsBaromVisibWave heightAir tempDewpointWater temp
2017-Jan-01 06:30N 35°38' E 014°41'1111.8
2017-Jan-01 05:33N 35°42' E 014°28'1211.8
2017-Jan-01 04:33N 35°49' E 014°16'1212.1
2017-Jan-01 03:33N 35°56' E 014°04'1211.8
2017-Jan-01 02:33N 36°01' E 013°50'  
2016-Dec-29 20:17N 36°33' E 000°24'27211.5
2016-Dec-28 20:33N 36°03' W 005°11'9 9.4
2016-Dec-28 19:34N 36°06' W 005°22'2 2.3
2016-Dec-28 18:34N 36°09' W 005°23'0 0.0
2016-Dec-28 14:07N 36°09' W 005°23'0 0.0
2016-Dec-28 11:10N 36°09' W 005°23'0 0.0
2016-Dec-28 10:10N 36°09' W 005°23'0 0.2
2016-Dec-28 09:33N 36°09' W 005°23'2 1.7
2016-Dec-28 08:21N 36°07' W 005°22'2 3.0
2016-Dec-28 07:33N 36°05' W 005°20'6 5.5
2016-Dec-28 06:33N 36°07' W 005°14'5 4.7
2016-Dec-28 05:33N 36°08' W 005°08'1 0.8
2016-Dec-28 04:31N 36°08' W 005°09'8 8.3
2016-Dec-28 03:33N 36°02' W 005°15'1111.3
2016-Dec-28 02:33N 35°58' W 005°29'1211.1
2016-Dec-28 01:30N 35°55' W 005°43'1111.3
2016-Dec-28 00:33N 35°55' W 005°56'20410.0
2016-Dec-27 04:11N 37°25' W 009°44'812.3
2016-Dec-27 03:33N 37°33' W 009°47'1212.4
2016-Dec-27 02:33N 37°45' W 009°50'1312.5
2016-Dec-27 01:33N 37°57' W 009°53'1212.4
2016-Dec-27 00:33N 38°09' W 009°57'1212.2
2016-Dec-26 23:34N 38°21' W 010°01'1312.5
2016-Dec-26 22:33N 38°33' W 010°04'1212.2
2016-Dec-26 21:33N 38°45' W 010°07'1212.2
2016-Dec-26 20:33N 38°58' W 010°07'1212.3
2016-Dec-26 19:32N 39°10' W 010°07'45411.5
2016-Dec-25 04:07N 46°32' W 007°46'25610.0
2016-Dec-24 02:33N 49°45' W 003°34'1111.1
2016-Dec-24 01:33N 49°51' W 003°20'1111.4
2016-Dec-24 00:34N 49°57' W 003°04'1211.8
2016-Dec-23 23:33N 50°00' W 002°46'1612.7
2016-Dec-23 22:16N 50°05' W 002°22'913.2
2016-Dec-23 21:33N 50°08' W 002°08'1313.1
2016-Dec-23 20:33N 50°11' W 001°49'1212.0
2016-Dec-23 19:33N 50°13' W 001°30'1110.9
2016-Dec-23 18:34N 50°16' W 001°14'30 9.9
2016-Dec-23 15:30N 50°25' W 000°28'1010.3
2016-Dec-23 14:33N 50°27' W 000°13'1111.1
2016-Dec-23 13:32N 50°31' E 000°04'1212.0
2016-Dec-23 12:33N 50°34' E 000°21'3712.2
2016-Dec-23 09:33N 50°51' E 001°12'1111.3
2016-Dec-23 08:33N 50°60' E 001°24'1111.2
2016-Dec-23 07:33N 51°08' E 001°37'1211.7
2016-Dec-23 06:34N 51°17' E 001°48'1313.1
2016-Dec-23 05:34N 51°28' E 001°59'1413.8
2016-Dec-23 04:33N 51°39' E 002°14'1514.0
2016-Dec-23 03:27N 51°50' E 002°31'9912.4
2016-Dec-22 19:27N 53°06' E 004°14'  
Track history (hours):
 
Tides and Currents Weather Stations Pressure Air Temp Water Temp Dewpoint Dewpoint Depression Visibility Wind Speed Wind Dir Waves Ship Positions

Chris

Last reported at 2017-Jan-01 06:30 UTC. Time now 2017-Jan-17 10:58 UTC.
Position N 35°38' E 014°41'.
Warning: this ship's position is 16 days out of date.

Length 225 m; draft 12.6 m.

Type: Cargo ship. MMSI: 538004472.

Date/timePositionNaut miles runAvg speedWind from/ knotsBaromVisibWave heightAir tempDewpointWater temp
2017-Jan-01 06:30N 35°38' E 014°41'1111.8
2017-Jan-01 05:33N 35°42' E 014°28'1211.8
2017-Jan-01 04:33N 35°49' E 014°16'1212.1
2017-Jan-01 03:33N 35°56' E 014°04'1211.8
2017-Jan-01 02:33N 36°01' E 013°50'  
2016-Dec-29 20:17N 36°33' E 000°24'27211.5
2016-Dec-28 20:33N 36°03' W 005°11'9 9.4
2016-Dec-28 19:34N 36°06' W 005°22'2 2.3
2016-Dec-28 18:34N 36°09' W 005°23'0 0.0
2016-Dec-28 14:07N 36°09' W 005°23'0 0.0
2016-Dec-28 11:10N 36°09' W 005°23'0 0.0
2016-Dec-28 10:10N 36°09' W 005°23'0 0.2
2016-Dec-28 09:33N 36°09' W 005°23'2 1.7
2016-Dec-28 08:21N 36°07' W 005°22'2 3.0
2016-Dec-28 07:33N 36°05' W 005°20'6 5.5
2016-Dec-28 06:33N 36°07' W 005°14'5 4.7
2016-Dec-28 05:33N 36°08' W 005°08'1 0.8
2016-Dec-28 04:31N 36°08' W 005°09'8 8.3
2016-Dec-28 03:33N 36°02' W 005°15'1111.3
2016-Dec-28 02:33N 35°58' W 005°29'1211.1
2016-Dec-28 01:30N 35°55' W 005°43'1111.3
2016-Dec-28 00:33N 35°55' W 005°56'20410.0
2016-Dec-27 04:11N 37°25' W 009°44'812.3
2016-Dec-27 03:33N 37°33' W 009°47'1212.4
2016-Dec-27 02:33N 37°45' W 009°50'1312.5
2016-Dec-27 01:33N 37°57' W 009°53'1212.4
2016-Dec-27 00:33N 38°09' W 009°57'1212.2
2016-Dec-26 23:34N 38°21' W 010°01'1312.5
2016-Dec-26 22:33N 38°33' W 010°04'1212.2
2016-Dec-26 21:33N 38°45' W 010°07'1212.2
2016-Dec-26 20:33N 38°58' W 010°07'1212.3
2016-Dec-26 19:32N 39°10' W 010°07'45411.5
2016-Dec-25 04:07N 46°32' W 007°46'25610.0
2016-Dec-24 02:33N 49°45' W 003°34'1111.1
2016-Dec-24 01:33N 49°51' W 003°20'1111.4
2016-Dec-24 00:34N 49°57' W 003°04'1211.8
2016-Dec-23 23:33N 50°00' W 002°46'1612.7
2016-Dec-23 22:16N 50°05' W 002°22'913.2
2016-Dec-23 21:33N 50°08' W 002°08'1313.1
2016-Dec-23 20:33N 50°11' W 001°49'1212.0
2016-Dec-23 19:33N 50°13' W 001°30'1110.9
2016-Dec-23 18:34N 50°16' W 001°14'30 9.9
2016-Dec-23 15:30N 50°25' W 000°28'1010.3
2016-Dec-23 14:33N 50°27' W 000°13'1111.1
2016-Dec-23 13:32N 50°31' E 000°04'1212.0
2016-Dec-23 12:33N 50°34' E 000°21'3712.2
2016-Dec-23 09:33N 50°51' E 001°12'1111.3
2016-Dec-23 08:33N 50°60' E 001°24'1111.2
2016-Dec-23 07:33N 51°08' E 001°37'1211.7
2016-Dec-23 06:34N 51°17' E 001°48'1313.1
2016-Dec-23 05:34N 51°28' E 001°59'1413.8
2016-Dec-23 04:33N 51°39' E 002°14'1514.0
2016-Dec-23 03:27N 51°50' E 002°31'9912.4
2016-Dec-22 19:27N 53°06' E 004°14'  

Dump ship's entire track history